createdAt,value
2023-01-27T00:02:42.921Z,52.29
2023-01-27T00:05:28.758Z,52.73
2023-01-27T00:08:15.159Z,52.24
2023-01-27T00:11:19.944Z,52.51
2023-01-27T00:14:05.961Z,52.37
2023-01-27T00:16:52.233Z,52.44
2023-01-27T00:19:38.202Z,52.29
2023-01-27T00:22:42.834Z,52.37
2023-01-27T00:25:28.790Z,52.01
2023-01-27T00:28:22.982Z,52.20
2023-01-27T00:31:29.544Z,51.90
2023-01-27T00:34:15.842Z,51.98
2023-01-27T00:37:01.578Z,52.10
2023-01-27T00:39:47.480Z,52.42
2023-01-27T00:42:33.270Z,51.64
2023-01-27T00:45:37.745Z,52.03
2023-01-27T00:48:24.811Z,52.20
2023-01-27T00:51:11.495Z,51.50
2023-01-27T00:53:59.297Z,51.75
2023-01-27T00:56:45.211Z,51.71
2023-01-27T00:59:31.907Z,51.84
2023-01-27T01:02:18.069Z,52.00
2023-01-27T01:05:04.112Z,51.86
2023-01-27T01:07:50.024Z,51.71
2023-01-27T01:10:38.003Z,51.78
2023-01-27T01:13:24.027Z,51.91
2023-01-27T01:16:19.174Z,51.72
2023-01-27T01:19:04.931Z,51.55
2023-01-27T01:21:50.819Z,51.63
2023-01-27T01:24:36.614Z,51.31
2023-01-27T01:27:22.943Z,51.52
2023-01-27T01:30:09.841Z,51.70
2023-01-27T01:32:56.977Z,51.83
2023-01-27T01:35:43.558Z,51.75
2023-01-27T01:38:29.656Z,51.79
2023-01-27T01:41:18.634Z,51.82
2023-01-27T01:44:31.033Z,51.68
2023-01-27T01:47:19.159Z,51.68
2023-01-27T01:50:05.589Z,51.75
2023-01-27T01:52:52.226Z,51.53
2023-01-27T01:55:39.611Z,51.69
2023-01-27T01:58:28.113Z,51.43
2023-01-27T02:01:19.094Z,51.49
2023-01-27T02:04:09.632Z,51.69
2023-01-27T02:07:07.069Z,51.63
2023-01-27T02:09:55.213Z,51.67
2023-01-27T02:12:41.309Z,51.27
2023-01-27T02:15:29.384Z,51.27
2023-01-27T02:18:15.107Z,51.27
2023-01-27T02:21:01.301Z,51.28
2023-01-27T02:23:56.433Z,51.24
2023-01-27T02:26:44.389Z,51.39
2023-01-27T02:29:30.045Z,51.22
2023-01-27T02:32:23.751Z,51.38
2023-01-27T02:35:13.305Z,51.27
2023-01-27T02:37:59.693Z,51.20
2023-01-27T02:40:49.068Z,51.53
2023-01-27T02:43:35.223Z,51.53
2023-01-27T02:46:21.447Z,51.40
2023-01-27T02:49:07.571Z,51.01
2023-01-27T02:51:54.419Z,51.24
2023-01-27T02:54:41.360Z,51.21
2023-01-27T02:57:27.634Z,51.16
2023-01-27T03:00:33.657Z,51.22
2023-01-27T03:03:19.726Z,51.51
2023-01-27T03:06:05.896Z,51.26
2023-01-27T03:08:51.895Z,50.97
2023-01-27T03:11:56.291Z,51.48
2023-01-27T03:15:01.314Z,51.37
2023-01-27T03:18:05.922Z,52.07
2023-01-27T03:20:52.301Z,51.21
2023-01-27T03:23:38.624Z,51.45
2023-01-27T03:26:25.037Z,51.43
2023-01-27T03:29:33.959Z,51.64
2023-01-27T03:32:20.787Z,51.28
2023-01-27T03:35:23.384Z,51.22
2023-01-27T03:38:31.875Z,51.16
2023-01-27T03:41:36.183Z,51.27
2023-01-27T03:44:40.752Z,51.11
2023-01-27T03:47:27.256Z,51.07
2023-01-27T03:50:19.344Z,51.40
2023-01-27T03:53:05.725Z,51.06
2023-01-27T03:55:51.845Z,51.09
2023-01-27T03:58:38.052Z,51.26
2023-01-27T04:01:24.523Z,51.38
2023-01-27T04:04:30.241Z,51.39
2023-01-27T04:07:20.013Z,51.39
2023-01-27T04:10:06.757Z,51.24
2023-01-27T04:12:52.821Z,51.37
2023-01-27T04:15:38.618Z,51.43
2023-01-27T04:18:24.363Z,51.52
2023-01-27T04:21:10.074Z,51.29
2023-01-27T04:23:56.550Z,51.13
2023-01-27T04:26:43.897Z,51.25
2023-01-27T04:29:31.783Z,51.17
2023-01-27T04:32:17.673Z,51.01
2023-01-27T04:35:03.592Z,51.20
2023-01-27T04:37:49.808Z,51.00
2023-01-27T04:40:35.699Z,51.38
2023-01-27T04:43:21.309Z,51.29
2023-01-27T04:46:07.267Z,51.52
2023-01-27T04:48:53.092Z,51.25
2023-01-27T04:51:39.027Z,51.39
2023-01-27T04:54:24.860Z,51.27
2023-01-27T04:57:10.655Z,51.17
2023-01-27T04:59:56.490Z,51.02
2023-01-27T05:02:43.313Z,51.34
2023-01-27T05:05:29.052Z,51.25
2023-01-27T05:08:15.313Z,51.06
2023-01-27T05:11:01.561Z,51.31
2023-01-27T05:13:47.383Z,50.77
2023-01-27T05:16:33.319Z,50.89
2023-01-27T05:19:19.167Z,51.22
2023-01-27T05:22:05.110Z,51.48
2023-01-27T05:24:51.057Z,51.19
2023-01-27T05:27:37.415Z,51.54
2023-01-27T05:30:23.357Z,51.37
2023-01-27T05:33:10.989Z,51.15
2023-01-27T05:36:01.622Z,50.95
2023-01-27T05:38:47.570Z,51.19
2023-01-27T05:41:34.913Z,51.41
2023-01-27T05:44:20.873Z,51.44
2023-01-27T05:47:06.831Z,51.13
2023-01-27T05:49:52.872Z,50.82
2023-01-27T05:52:38.496Z,51.35
2023-01-27T05:55:24.423Z,50.93
2023-01-27T05:58:10.244Z,50.91
2023-01-27T06:00:56.153Z,51.40
2023-01-27T06:03:43.035Z,51.33
2023-01-27T06:06:30.780Z,51.10
2023-01-27T06:09:16.432Z,51.36
2023-01-27T06:12:02.389Z,51.36
2023-01-27T06:14:48.040Z,51.10
2023-01-27T06:17:34.104Z,51.21
2023-01-27T06:20:21.025Z,51.25
2023-01-27T06:23:10.341Z,50.90
2023-01-27T06:25:56.802Z,51.11
2023-01-27T06:28:43.094Z,51.14
2023-01-27T06:31:29.407Z,51.08
2023-01-27T06:34:15.806Z,51.75
2023-01-27T06:37:01.682Z,51.26
2023-01-27T06:39:47.356Z,51.34
2023-01-27T06:42:33.403Z,50.89
2023-01-27T06:45:19.542Z,51.37
2023-01-27T06:48:05.610Z,51.13
2023-01-27T06:50:53.299Z,51.45
2023-01-27T06:53:39.884Z,51.29
2023-01-27T06:56:25.821Z,50.88
2023-01-27T06:59:11.757Z,51.30
2023-01-27T07:01:57.953Z,51.25
2023-01-27T07:04:43.730Z,51.07
2023-01-27T07:07:29.685Z,51.26
2023-01-27T07:10:16.021Z,51.03
2023-01-27T07:13:07.207Z,51.22
2023-01-27T07:15:56.746Z,51.21
2023-01-27T07:18:42.821Z,51.38
2023-01-27T07:21:28.481Z,51.25
2023-01-27T07:24:14.247Z,51.44
2023-01-27T07:27:00.300Z,51.09
2023-01-27T07:29:46.117Z,51.08
2023-01-27T07:32:32.051Z,51.13
2023-01-27T07:35:18.209Z,51.26
2023-01-27T07:38:05.539Z,51.28
2023-01-27T07:40:51.746Z,51.21
2023-01-27T07:43:37.625Z,51.13
2023-01-27T07:46:26.750Z,51.36
2023-01-27T07:49:12.719Z,51.65
2023-01-27T07:51:58.662Z,50.89
2023-01-27T07:54:44.476Z,51.20
2023-01-27T07:57:30.264Z,51.15
2023-01-27T08:00:16.475Z,51.21
2023-01-27T08:03:03.100Z,51.45
2023-01-27T08:05:49.564Z,51.23
2023-01-27T08:08:37.970Z,51.37
2023-01-27T08:11:23.979Z,51.40
2023-01-27T08:14:09.956Z,51.51
2023-01-27T08:16:55.869Z,51.58
2023-01-27T08:19:42.039Z,51.41
2023-01-27T08:22:31.407Z,51.47
2023-01-27T08:25:17.275Z,51.57
2023-01-27T08:28:03.044Z,51.64
2023-01-27T08:30:52.076Z,51.23
2023-01-27T08:33:39.194Z,51.24
2023-01-27T08:36:25.530Z,51.34
2023-01-27T08:39:11.961Z,51.58
2023-01-27T08:41:58.170Z,51.47
2023-01-27T08:44:43.851Z,51.28
2023-01-27T08:47:29.744Z,51.56
2023-01-27T08:50:16.087Z,51.36
2023-01-27T08:53:04.183Z,51.87
2023-01-27T08:55:50.641Z,51.50
2023-01-27T08:58:36.585Z,51.91
2023-01-27T09:01:22.585Z,51.62
2023-01-27T09:04:08.816Z,51.77
2023-01-27T09:06:54.477Z,51.68
2023-01-27T09:09:40.510Z,51.97
2023-01-27T09:12:26.455Z,51.63
2023-01-27T09:15:13.512Z,51.68
2023-01-27T09:18:00.257Z,51.05
2023-01-27T09:20:47.011Z,51.79
2023-01-27T09:23:33.646Z,51.76
2023-01-27T09:26:19.552Z,51.36
2023-01-27T09:29:05.497Z,51.36
2023-01-27T09:31:51.372Z,51.42
2023-01-27T09:34:37.381Z,51.20
2023-01-27T09:37:25.894Z,51.50
2023-01-27T09:40:42.416Z,50.97
2023-01-27T09:43:54.289Z,51.05
2023-01-27T09:46:55.768Z,51.38
2023-01-27T09:50:05.444Z,51.33
2023-01-27T09:53:19.253Z,50.90
2023-01-27T09:56:10.888Z,50.83
2023-01-27T09:59:25.212Z,51.31
2023-01-27T10:02:11.356Z,51.19
2023-01-27T10:05:16.046Z,51.23
2023-01-27T10:08:11.510Z,51.13
2023-01-27T10:11:00.107Z,50.96
2023-01-27T10:14:22.758Z,50.90
2023-01-27T10:17:24.695Z,50.87
2023-01-27T10:20:14.069Z,50.86
2023-01-27T10:23:02.909Z,50.74
2023-01-27T10:25:57.729Z,50.34
2023-01-27T10:28:51.281Z,50.77
2023-01-27T10:31:44.232Z,50.81
2023-01-27T10:34:34.958Z,50.91
2023-01-27T10:37:23.901Z,50.75
2023-01-27T10:40:48.206Z,50.68
2023-01-27T10:43:37.258Z,50.30
2023-01-27T10:46:47.779Z,50.12
2023-01-27T10:49:49.738Z,50.14
2023-01-27T10:52:40.577Z,50.63
2023-01-27T10:55:30.135Z,50.76
2023-01-27T10:58:26.033Z,49.97
2023-01-27T11:01:22.878Z,50.17
2023-01-27T11:04:16.726Z,50.10
2023-01-27T11:07:04.371Z,50.59
2023-01-27T11:10:19.829Z,50.23
2023-01-27T11:13:08.747Z,50.15
2023-01-27T11:15:54.859Z,50.29
2023-01-27T11:18:43.232Z,50.81
2023-01-27T11:21:30.848Z,50.42
2023-01-27T11:24:28.928Z,50.31
2023-01-27T11:27:24.287Z,49.93
2023-01-27T11:30:17.265Z,49.75
2023-01-27T11:33:18.780Z,50.26
2023-01-27T11:36:05.103Z,50.09
2023-01-27T11:38:52.285Z,50.04
2023-01-27T11:41:46.505Z,50.10
2023-01-27T11:44:34.466Z,50.42
2023-01-27T11:47:26.557Z,50.05
2023-01-27T11:50:21.072Z,49.97
2023-01-27T11:53:36.849Z,49.83
2023-01-27T11:56:24.499Z,50.14
2023-01-27T11:59:18.001Z,50.21
2023-01-27T12:02:07.095Z,49.63
2023-01-27T12:05:07.832Z,49.38
2023-01-27T12:08:01.968Z,49.90
2023-01-27T12:10:48.250Z,49.54
2023-01-27T12:13:34.437Z,49.42
2023-01-27T12:16:21.130Z,50.07
2023-01-27T12:19:24.063Z,50.01
2023-01-27T12:22:39.109Z,50.68
2023-01-27T12:25:28.104Z,49.80
2023-01-27T12:28:25.264Z,49.66
2023-01-27T12:31:31.380Z,49.49
2023-01-27T12:34:28.117Z,49.82
2023-01-27T12:37:22.069Z,50.12
2023-01-27T12:40:19.745Z,49.42
2023-01-27T12:43:20.251Z,49.56
2023-01-27T12:46:19.178Z,50.03
2023-01-27T12:49:11.316Z,49.45
2023-01-27T12:51:57.454Z,49.51
2023-01-27T12:54:43.341Z,49.80
2023-01-27T12:57:30.406Z,49.52
2023-01-27T13:00:17.099Z,49.21
2023-01-27T13:03:07.633Z,49.54
2023-01-27T13:05:55.585Z,49.76
2023-01-27T13:08:41.769Z,49.63
2023-01-27T13:11:39.211Z,49.34
2023-01-27T13:14:30.113Z,49.44
2023-01-27T13:17:45.797Z,49.50
2023-01-27T13:20:38.107Z,49.24
2023-01-27T13:23:27.927Z,49.46
2023-01-27T13:26:21.590Z,49.69
2023-01-27T13:29:10.233Z,49.37
2023-01-27T13:32:06.908Z,49.52
2023-01-27T13:34:56.070Z,49.62
2023-01-27T13:38:08.408Z,49.58
2023-01-27T13:40:54.385Z,49.31
2023-01-27T13:43:41.629Z,49.58
2023-01-27T13:46:30.750Z,49.27
2023-01-27T13:49:28.867Z,49.31
2023-01-27T13:52:14.819Z,49.87
2023-01-27T13:55:00.916Z,49.23
2023-01-27T13:57:53.266Z,49.76
2023-01-27T14:00:53.147Z,49.79
2023-01-27T14:03:39.427Z,49.56
2023-01-27T14:06:28.353Z,49.53
2023-01-27T14:09:33.058Z,49.65
2023-01-27T14:12:43.506Z,49.58
2023-01-27T14:15:38.213Z,49.43
2023-01-27T14:18:28.295Z,49.29
2023-01-27T14:21:39.338Z,49.54
2023-01-27T14:24:36.567Z,49.41
2023-01-27T14:27:29.526Z,48.84
2023-01-27T14:30:26.139Z,48.89
2023-01-27T14:33:21.084Z,49.13
2023-01-27T14:36:21.678Z,48.85
2023-01-27T14:39:33.904Z,49.35
2023-01-27T14:42:41.026Z,49.19
2023-01-27T14:45:33.378Z,49.36
2023-01-27T14:48:44.019Z,49.02
2023-01-27T14:51:39.992Z,49.43
2023-01-27T14:54:38.373Z,49.27
2023-01-27T14:57:37.333Z,49.10
2023-01-27T15:00:30.160Z,49.38
2023-01-27T15:03:23.089Z,49.26
2023-01-27T15:06:40.829Z,49.48
2023-01-27T15:09:39.187Z,49.39
2023-01-27T15:12:57.317Z,49.55
2023-01-27T15:16:09.898Z,49.10
2023-01-27T15:19:02.074Z,49.13
2023-01-27T15:21:58.711Z,49.12
2023-01-27T15:24:57.282Z,49.41
2023-01-27T15:27:44.748Z,49.09
2023-01-27T15:30:38.535Z,49.17
2023-01-27T15:33:50.083Z,49.08
2023-01-27T15:36:38.468Z,49.26
2023-01-27T15:39:35.549Z,49.72
2023-01-27T15:42:58.189Z,49.38
2023-01-27T15:45:46.592Z,48.95
2023-01-27T15:48:34.648Z,49.04
2023-01-27T15:51:21.130Z,49.59
2023-01-27T15:54:14.205Z,49.38
2023-01-27T15:57:04.611Z,49.14
2023-01-27T15:59:58.803Z,49.26
2023-01-27T16:02:46.996Z,49.54
2023-01-27T16:05:38.344Z,49.38
2023-01-27T16:08:24.782Z,49.53
2023-01-27T16:11:28.941Z,49.56
2023-01-27T16:14:15.793Z,49.25
2023-01-27T16:17:15.791Z,49.33
2023-01-27T16:20:19.997Z,49.67
2023-01-27T16:23:12.180Z,49.47
2023-01-27T16:26:30.130Z,49.23
2023-01-27T16:29:23.946Z,49.84
2023-01-27T16:32:22.111Z,49.37
2023-01-27T16:35:17.542Z,49.57
2023-01-27T16:38:08.483Z,49.46
2023-01-27T16:41:01.696Z,49.26
2023-01-27T16:43:54.728Z,49.92
2023-01-27T16:46:45.774Z,49.50
2023-01-27T16:49:37.565Z,49.40
2023-01-27T16:52:40.714Z,49.20
2023-01-27T16:55:27.525Z,49.42
2023-01-27T16:58:20.129Z,49.34
2023-01-27T17:01:06.829Z,49.80
2023-01-27T17:04:04.875Z,49.94
2023-01-27T17:06:59.205Z,49.75
2023-01-27T17:09:57.744Z,49.77
2023-01-27T17:12:46.998Z,49.74
2023-01-27T17:15:38.481Z,49.78
2023-01-27T17:18:25.255Z,49.85
2023-01-27T17:21:11.110Z,50.27
2023-01-27T17:24:06.752Z,50.49
2023-01-27T17:27:06.056Z,50.17
2023-01-27T17:30:02.124Z,50.62
2023-01-27T17:32:50.831Z,50.04
2023-01-27T17:35:38.039Z,50.19
2023-01-27T17:38:36.118Z,49.81
2023-01-27T17:41:37.230Z,49.97
2023-01-27T17:44:23.127Z,50.09
2023-01-27T17:47:18.680Z,50.54
2023-01-27T17:50:06.215Z,49.86
2023-01-27T17:52:54.037Z,50.22
2023-01-27T17:55:40.130Z,50.22
2023-01-27T17:58:27.105Z,50.30
2023-01-27T18:01:14.784Z,50.14
2023-01-27T18:04:01.206Z,50.31
2023-01-27T18:06:49.865Z,50.30
2023-01-27T18:09:44.055Z,50.32
2023-01-27T18:12:35.864Z,50.00
2023-01-27T18:15:37.749Z,50.10
2023-01-27T18:18:32.477Z,49.90
2023-01-27T18:21:26.789Z,50.07
2023-01-27T18:24:20.863Z,50.36
2023-01-27T18:27:23.017Z,50.38
2023-01-27T18:30:16.316Z,50.13
2023-01-27T18:33:04.631Z,50.40
2023-01-27T18:35:59.155Z,50.35
2023-01-27T18:38:50.696Z,50.32
2023-01-27T18:41:46.483Z,50.25
2023-01-27T18:44:36.191Z,49.83
2023-01-27T18:47:28.768Z,50.30
2023-01-27T18:50:18.574Z,50.18
2023-01-27T18:53:12.319Z,50.17
2023-01-27T18:56:00.073Z,50.11
2023-01-27T18:58:46.366Z,50.24
2023-01-27T19:01:35.133Z,49.98
2023-01-27T19:04:23.360Z,49.84
2023-01-27T19:07:17.874Z,50.36
2023-01-27T19:10:11.915Z,49.88
2023-01-27T19:13:01.743Z,50.04
2023-01-27T19:15:51.960Z,50.11
2023-01-27T19:18:39.117Z,50.24
2023-01-27T19:21:28.594Z,50.48
2023-01-27T19:24:15.084Z,50.05
2023-01-27T19:27:04.161Z,50.56
2023-01-27T19:29:51.110Z,50.49
2023-01-27T19:32:37.383Z,50.23
2023-01-27T19:35:25.459Z,49.97
2023-01-27T19:38:13.240Z,50.60
2023-01-27T19:40:59.850Z,50.21
2023-01-27T19:43:50.202Z,50.60
2023-01-27T19:46:37.298Z,50.05
2023-01-27T19:49:24.588Z,49.96
2023-01-27T19:52:11.199Z,49.88
2023-01-27T19:54:58.627Z,50.08
2023-01-27T19:57:45.644Z,50.22
2023-01-27T20:00:37.085Z,49.97
2023-01-27T20:03:23.757Z,50.19
2023-01-27T20:06:18.960Z,50.00
2023-01-27T20:09:05.211Z,49.99
2023-01-27T20:11:51.329Z,49.92
2023-01-27T20:14:37.245Z,50.00
2023-01-27T20:17:23.272Z,50.27
2023-01-27T20:20:10.032Z,49.95
2023-01-27T20:22:56.424Z,50.11
2023-01-27T20:25:42.440Z,50.39
2023-01-27T20:28:28.775Z,50.00
2023-01-27T20:31:22.640Z,50.08
2023-01-27T20:34:08.441Z,50.16
2023-01-27T20:36:54.347Z,50.06
2023-01-27T20:39:40.430Z,49.53
2023-01-27T20:42:26.313Z,50.18
2023-01-27T20:45:12.757Z,49.64
2023-01-27T20:47:59.948Z,49.35
2023-01-27T20:50:46.073Z,49.71
2023-01-27T20:53:34.331Z,49.87
2023-01-27T20:56:24.034Z,49.85
2023-01-27T20:59:09.932Z,49.67
2023-01-27T21:01:55.746Z,49.80
2023-01-27T21:04:41.518Z,49.96
2023-01-27T21:07:27.399Z,50.08
2023-01-27T21:10:13.202Z,49.56
2023-01-27T21:12:59.148Z,49.58
2023-01-27T21:15:49.024Z,50.12
2023-01-27T21:18:38.263Z,49.93
2023-01-27T21:21:27.348Z,49.81
2023-01-27T21:24:13.564Z,49.81
2023-01-27T21:26:59.753Z,49.99
2023-01-27T21:29:45.588Z,49.84
2023-01-27T21:32:31.601Z,50.10
2023-01-27T21:35:17.451Z,49.64
2023-01-27T21:38:03.464Z,49.54
2023-01-27T21:40:51.469Z,49.73
2023-01-27T21:43:56.619Z,49.66
2023-01-27T21:46:42.759Z,49.43
2023-01-27T21:49:29.037Z,49.57
2023-01-27T21:52:14.862Z,49.63
2023-01-27T21:55:02.541Z,49.63
2023-01-27T21:57:50.926Z,49.44
2023-01-27T22:00:36.691Z,49.71
2023-01-27T22:03:23.957Z,49.90
2023-01-27T22:06:10.533Z,49.37
2023-01-27T22:08:56.459Z,49.31
2023-01-27T22:11:42.221Z,49.67
2023-01-27T22:14:29.296Z,49.44
2023-01-27T22:17:16.349Z,49.37
2023-01-27T22:20:04.408Z,49.50
2023-01-27T22:22:51.991Z,49.38
2023-01-27T22:25:38.004Z,49.40
2023-01-27T22:28:24.378Z,49.72
2023-01-27T22:31:10.340Z,49.82
2023-01-27T22:33:55.938Z,49.34
2023-01-27T22:36:41.840Z,49.72
2023-01-27T22:39:27.719Z,49.50
2023-01-27T22:42:13.585Z,49.47
2023-01-27T22:44:59.796Z,49.60
2023-01-27T22:47:45.654Z,49.71
2023-01-27T22:50:31.398Z,49.52
2023-01-27T22:53:17.389Z,49.56
2023-01-27T22:56:04.161Z,49.72
2023-01-27T22:58:50.082Z,49.67
2023-01-27T23:01:36.109Z,49.79
2023-01-27T23:04:21.805Z,49.58
2023-01-27T23:07:07.494Z,49.59
2023-01-27T23:09:53.491Z,49.69
2023-01-27T23:12:39.117Z,49.82
2023-01-27T23:15:25.180Z,49.67
2023-01-27T23:18:11.472Z,49.42
2023-01-27T23:21:02.776Z,49.49
2023-01-27T23:23:51.011Z,49.41
2023-01-27T23:26:37.256Z,49.42
2023-01-27T23:29:25.295Z,49.51
2023-01-27T23:32:11.908Z,49.56
2023-01-27T23:34:57.670Z,49.46
2023-01-27T23:37:43.601Z,49.27
2023-01-27T23:40:29.478Z,49.67
2023-01-27T23:43:15.220Z,49.43
2023-01-27T23:46:00.937Z,49.69
2023-01-27T23:48:53.908Z,49.54
2023-01-27T23:51:40.066Z,49.31
2023-01-27T23:54:26.177Z,49.32
2023-01-27T23:57:11.865Z,49.48
2023-01-27T23:59:57.780Z,49.76
